首页
METAR-TAF:

METAR-TAF

机场 :

弗尔沙茨, 塞尔维亚

纬度: 45-09N, 经度: 021-19E, 海拔: 83米

当前天气观测

该预报发布于24分钟前的17:30 UTC
风速2节,风向多变
温度 10°C
湿度 53%
气压 1020 hPa
能见度10公里或以上
1500米以下无云,无积雨云

METAR: LYVR 171730Z AUTO VRB02KT CAVOK 10/01 Q1020

时间: 18:54 (17:54 UTC)

预报

该预报发布于54分钟前的17:00 UTC
预报有效从17日的 18点(UTC)到 18日的 18点(UTC)
风速3节,风向
能见度10公里或以上
1500米以下无云,无积雨云
成为
从 18日的 09点(UTC)到 18日的 11点(UTC)
风速12节,风向西北

TAF: LYVR 171700Z 1718/1818 18003KT CAVOK TX15/1813Z TN02/1805Z BECMG 1809/1811 32012KT

超过4000个机场的气象观测和天气预报(METAR&TAF报告)。

可查询的气象台以黄色和红色小点在地图上表示。

将鼠标移到小点上方,可查看气象台名称。

然后点击查看天气观测和预报。

如需切换地图:点击带黑十字的绿色按钮放大地图;点击带横线的绿色按钮缩小地图;或者点击绿色箭头查看邻近地区的地图。


METAR-TAF: